Virgem Santissima — CUEQ4 — position and weather

sailwx.info

Track history (hours):
 
Tides and Currents Weather Stations Pressure Air Temp Water Temp Dewpoint Dewpoint Depression Visibility Wind Speed Wind Dir Waves Ship Positions

Virgem Santissima

Last reported at 2017-Nov-07 12:47 UTC. Time now 2017-Dec-18 09:08 UTC.
Position N 41°14' W 008°45'.
Warning: this ship's position is 40 days out of date.

Length 24 m.

Type: Fishing. MMSI: 263411270.

Date/timePositionNaut miles runAvg speedWind from/ knotsBaromVisibWave heightAir tempDewpointWater temp
2017-Nov-07 12:47N 41°14' W 008°45'311.1
2017-Nov-07 12:31N 41°11' W 008°43'1 2.1
2017-Nov-07 12:00N 41°11' W 008°42'0 0.0
2017-Nov-07 11:31N 41°11' W 008°42'0 0.0
2017-Nov-07 11:01N 41°11' W 008°42'0 0.0
2017-Nov-07 10:31N 41°11' W 008°42'2 3.5
2017-Nov-07 10:01N 41°09' W 008°42'4 0.3
2017-Nov-06 22:46N 41°06' W 008°43'310.3
2017-Nov-06 22:31N 41°08' W 008°42'4 0.2
2017-Nov-06 00:34N 41°04' W 008°43'1 9.7
2017-Nov-06 00:28N 41°05' W 008°42'4 9.6
2017-Nov-06 00:01N 41°09' W 008°42'2 3.3
2017-Nov-05 23:31N 41°11' W 008°42'0 0.0
2017-Nov-04 11:08N 41°11' W 008°42'0 0.0
2017-Nov-04 11:00N 41°11' W 008°42'0 0.0
2017-Nov-04 10:30N 41°11' W 008°42'0 0.0
2017-Nov-04 10:00N 41°11' W 008°42'0 0.0
2017-Nov-03 11:19N 41°11' W 008°42'0 0.0
2017-Nov-03 11:00N 41°11' W 008°42'0 0.0
2017-Nov-03 10:30N 41°11' W 008°42'0 0.0
2017-Nov-03 10:00N 41°11' W 008°42'0 0.0
2017-Nov-03 09:30N 41°11' W 008°42'0 0.0
2017-Nov-03 09:00N 41°11' W 008°42'0 0.0
2017-Nov-03 08:30N 41°11' W 008°42'0 0.0
2017-Nov-03 08:00N 41°11' W 008°42'4 7.6
2017-Nov-03 07:30N 41°07' W 008°43'2 0.2
2017-Nov-02 22:47N 41°05' W 008°43'3 9.3
2017-Nov-02 22:30N 41°08' W 008°42'3 0.3
2017-Nov-02 12:06N 41°11' W 008°42'0 0.0
2017-Nov-02 12:01N 41°11' W 008°42'0 0.0
2017-Nov-02 11:30N 41°11' W 008°42'0 0.0
2017-Nov-02 11:00N 41°11' W 008°42'0 0.0
2017-Nov-02 10:30N 41°11' W 008°42'0 0.0
2017-Nov-02 10:00N 41°11' W 008°42'0 0.0
2017-Nov-02 09:30N 41°11' W 008°42'0 0.0
2017-Nov-02 09:00N 41°11' W 008°42'510.1
2017-Nov-02 08:31N 41°06' W 008°43'1 0.1
2017-Nov-01 23:27N 41°05' W 008°42'4 9.9
2017-Nov-01 23:01N 41°10' W 008°42'1 0.0
2017-Oct-31 10:23N 41°11' W 008°42'0 0.1
2017-Oct-31 10:00N 41°11' W 008°42'0 0.1
2017-Oct-31 09:30N 41°11' W 008°42'0 0.0
2017-Oct-31 09:00N 41°11' W 008°42'0 0.0
2017-Oct-31 08:30N 41°11' W 008°42'0 0.0
2017-Oct-31 08:00N 41°11' W 008°42'0 0.0
2017-Oct-31 07:30N 41°11' W 008°42'0 0.0
2017-Oct-31 07:00N 41°11' W 008°42'0 0.0
2017-Oct-31 06:30N 41°11' W 008°42'0 0.0
2017-Oct-31 06:00N 41°11' W 008°42'0 0.0
2017-Oct-31 05:31N 41°11' W 008°42'2 3.3
2017-Oct-31 05:01N 41°09' W 008°42'510.7
2017-Oct-31 04:30N 41°04' W 008°44'2 0.3
2017-Oct-30 23:29N 41°05' W 008°43'510.0
2017-Oct-30 23:01N 41°10' W 008°42'1 0.1
2017-Oct-30 11:24N 41°11' W 008°42'3 7.0
2017-Oct-30 11:00N 41°08' W 008°42'1 0.1
2017-Oct-29 23:32N 41°07' W 008°43'010.1
2017-Oct-29 23:30N 41°07' W 008°43'  
Track history (hours):
 
Tides and Currents Weather Stations Pressure Air Temp Water Temp Dewpoint Dewpoint Depression Visibility Wind Speed Wind Dir Waves Ship Positions

Virgem Santissima

Last reported at 2017-Nov-07 12:47 UTC. Time now 2017-Dec-18 09:08 UTC.
Position N 41°14' W 008°45'.
Warning: this ship's position is 40 days out of date.

Length 24 m.

Type: Fishing. MMSI: 263411270.

Date/timePositionNaut miles runAvg speedWind from/ knotsBaromVisibWave heightAir tempDewpointWater temp
2017-Nov-07 12:47N 41°14' W 008°45'311.1
2017-Nov-07 12:31N 41°11' W 008°43'1 2.1
2017-Nov-07 12:00N 41°11' W 008°42'0 0.0
2017-Nov-07 11:31N 41°11' W 008°42'0 0.0
2017-Nov-07 11:01N 41°11' W 008°42'0 0.0
2017-Nov-07 10:31N 41°11' W 008°42'2 3.5
2017-Nov-07 10:01N 41°09' W 008°42'4 0.3
2017-Nov-06 22:46N 41°06' W 008°43'310.3
2017-Nov-06 22:31N 41°08' W 008°42'4 0.2
2017-Nov-06 00:34N 41°04' W 008°43'1 9.7
2017-Nov-06 00:28N 41°05' W 008°42'4 9.6
2017-Nov-06 00:01N 41°09' W 008°42'2 3.3
2017-Nov-05 23:31N 41°11' W 008°42'0 0.0
2017-Nov-04 11:08N 41°11' W 008°42'0 0.0
2017-Nov-04 11:00N 41°11' W 008°42'0 0.0
2017-Nov-04 10:30N 41°11' W 008°42'0 0.0
2017-Nov-04 10:00N 41°11' W 008°42'0 0.0
2017-Nov-03 11:19N 41°11' W 008°42'0 0.0
2017-Nov-03 11:00N 41°11' W 008°42'0 0.0
2017-Nov-03 10:30N 41°11' W 008°42'0 0.0
2017-Nov-03 10:00N 41°11' W 008°42'0 0.0
2017-Nov-03 09:30N 41°11' W 008°42'0 0.0
2017-Nov-03 09:00N 41°11' W 008°42'0 0.0
2017-Nov-03 08:30N 41°11' W 008°42'0 0.0
2017-Nov-03 08:00N 41°11' W 008°42'4 7.6
2017-Nov-03 07:30N 41°07' W 008°43'2 0.2
2017-Nov-02 22:47N 41°05' W 008°43'3 9.3
2017-Nov-02 22:30N 41°08' W 008°42'3 0.3
2017-Nov-02 12:06N 41°11' W 008°42'0 0.0
2017-Nov-02 12:01N 41°11' W 008°42'0 0.0
2017-Nov-02 11:30N 41°11' W 008°42'0 0.0
2017-Nov-02 11:00N 41°11' W 008°42'0 0.0
2017-Nov-02 10:30N 41°11' W 008°42'0 0.0
2017-Nov-02 10:00N 41°11' W 008°42'0 0.0
2017-Nov-02 09:30N 41°11' W 008°42'0 0.0
2017-Nov-02 09:00N 41°11' W 008°42'510.1
2017-Nov-02 08:31N 41°06' W 008°43'1 0.1
2017-Nov-01 23:27N 41°05' W 008°42'4 9.9
2017-Nov-01 23:01N 41°10' W 008°42'1 0.0
2017-Oct-31 10:23N 41°11' W 008°42'0 0.1
2017-Oct-31 10:00N 41°11' W 008°42'0 0.1
2017-Oct-31 09:30N 41°11' W 008°42'0 0.0
2017-Oct-31 09:00N 41°11' W 008°42'0 0.0
2017-Oct-31 08:30N 41°11' W 008°42'0 0.0
2017-Oct-31 08:00N 41°11' W 008°42'0 0.0
2017-Oct-31 07:30N 41°11' W 008°42'0 0.0
2017-Oct-31 07:00N 41°11' W 008°42'0 0.0
2017-Oct-31 06:30N 41°11' W 008°42'0 0.0
2017-Oct-31 06:00N 41°11' W 008°42'0 0.0
2017-Oct-31 05:31N 41°11' W 008°42'2 3.3
2017-Oct-31 05:01N 41°09' W 008°42'510.7
2017-Oct-31 04:30N 41°04' W 008°44'2 0.3
2017-Oct-30 23:29N 41°05' W 008°43'510.0
2017-Oct-30 23:01N 41°10' W 008°42'1 0.1
2017-Oct-30 11:24N 41°11' W 008°42'3 7.0
2017-Oct-30 11:00N 41°08' W 008°42'1 0.1
2017-Oct-29 23:32N 41°07' W 008°43'010.1
2017-Oct-29 23:30N 41°07' W 008°43'  

Dump ship's entire track history